Decoded Metar for PAWD (SEWARD in AK, USA) (IATA:SWD) | Meteo·Mobile Aviation Weather
aviador You're here:

PAWD Decoded Metar

SEWARD in AK, USA
Report Time2018-08-22 04:53:00
UTC Time2018-08-22 05:38:21
Flight Rules vfr VFR
Wind350° at 10 kt
W.Decomp.*RWY 34: 9.9 kt HW 1.6 kt LCW
RWY 31: 9.3 kt HW 3.6 kt RCW
W.Rank350° ranks 3
Current wind is above 350° avg. (7.9)
Visibility9999 m
Phenomena:N/A
Clouds:Broken 041 Hf
Overcast 050 Hf
Expected CloudBase > 1,200 ft AGL from Temp-Dew spread
Ceiling4,100 ft
Temp15°C (ISA 0)
Dew Point12°C (82% RH)
AAT12.0°C
QNH1005 hPa
Density Alt551 ft
Elevation75 ft
Report Wrong Elevation
Raw Report
PAWD 220453Z AUTO 35010KT 10SM BKN041 OVC050 15/12 A2968 RMK AO2
SLP050 T01500122 TSNO=

Extra information for PAWD:More info

Metar Taf Metar & Taf Last 4 Metars F.Rules Stats Wind Profile Meteogram Temp Stats Airport Information Weather charts Add Link Nearby VenuesMetar ALERT Operation Metar Decoded Social comments

AIRNAV info for PAWD